Capelle aan den IJssel, Netherlands
Current Conditions -  °F | °C
As of 7:55 AM on Tuesday 21 Oct 2014 (Local Time) from EHRD Reporting Station
Light Rain Light Rain  
Wind Chill: 55°   Ceiling: 1400
Heat Index: 55°   Visibility: 6mi
Dew Point: 54°   Wind: 20mph
Humidity: 94%   Direction: 200°SSW
Pressure: 29.68"   Gusts: NA
Location:  51.93°N, 4.58°E
Report Text: EHRD 210555Z AUTO 20017KT 160V230 9999 -RA FEW012 BKN014BKN015CB 13/12 Q1005 RERA REDZ TEMPO 5000
Loading
Personal Weather Stations






























Interactive Weather Map
Tropical Storm Tracking
New forecast layout! Learn more

10-Day Weather Forecast

Advertisements
Track Severe Weather on mobile